createdAt,value
2024-02-06T00:02:03.386Z,7.50
2024-02-06T00:04:49.033Z,7.50
2024-02-06T00:07:36.288Z,7.50
2024-02-06T00:10:26.205Z,7.50
2024-02-06T00:13:12.181Z,7.50
2024-02-06T00:15:57.634Z,7.50
2024-02-06T00:18:43.389Z,7.40
2024-02-06T00:21:28.791Z,7.30
2024-02-06T00:24:14.302Z,7.20
2024-02-06T00:27:00.773Z,7.10
2024-02-06T00:29:46.425Z,6.90
2024-02-06T00:32:31.920Z,6.80
2024-02-06T00:35:17.537Z,6.70
2024-02-06T00:38:03.443Z,6.60
2024-02-06T00:40:48.945Z,6.40
2024-02-06T00:43:34.914Z,6.20
2024-02-06T00:46:20.796Z,6.10
2024-02-06T00:49:06.815Z,5.90
2024-02-06T00:51:52.411Z,6.10
2024-02-06T00:54:38.309Z,6.20
2024-02-06T00:57:24.027Z,6.20
2024-02-06T01:00:10.848Z,6.20
2024-02-06T01:02:56.458Z,6.20
2024-02-06T01:05:42.159Z,6.30
2024-02-06T01:08:27.608Z,6.30
2024-02-06T01:11:13.468Z,6.30
2024-02-06T01:13:58.849Z,6.40
2024-02-06T01:16:44.279Z,6.40
2024-02-06T01:19:30.321Z,6.40
2024-02-06T01:22:16.092Z,6.40
2024-02-06T01:25:01.919Z,6.40
2024-02-06T01:27:47.369Z,6.20
2024-02-06T01:30:32.729Z,6.10
2024-02-06T01:33:18.732Z,6.10
2024-02-06T01:36:05.181Z,6.10
2024-02-06T01:38:50.768Z,6.00
2024-02-06T01:41:36.427Z,5.90
2024-02-06T01:44:25.383Z,5.90
2024-02-06T01:47:11.274Z,6.00
2024-02-06T01:49:58.635Z,6.00
2024-02-06T01:52:44.422Z,6.00
2024-02-06T01:55:30.151Z,6.00
2024-02-06T01:58:16.554Z,6.10
2024-02-06T02:01:06.438Z,6.10
2024-02-06T02:03:55.714Z,6.10
2024-02-06T02:06:42.034Z,6.10
2024-02-06T02:09:28.177Z,6.10
2024-02-06T02:12:13.654Z,6.20
2024-02-06T02:14:59.254Z,6.30
2024-02-06T02:17:51.798Z,6.30
2024-02-06T02:20:37.450Z,6.40
2024-02-06T02:23:28.909Z,6.40
2024-02-06T02:26:15.519Z,6.50
2024-02-06T02:29:01.250Z,6.50
2024-02-06T02:31:48.013Z,6.60
2024-02-06T02:34:34.292Z,6.60
2024-02-06T02:37:20.492Z,6.50
2024-02-06T02:40:08.835Z,6.60
2024-02-06T02:42:54.385Z,6.60
2024-02-06T02:45:39.708Z,6.70
2024-02-06T02:48:25.527Z,6.70
2024-02-06T02:51:10.997Z,6.70
2024-02-06T02:53:56.526Z,6.80
2024-02-06T02:56:41.926Z,6.90
2024-02-06T02:59:27.469Z,7.00
2024-02-06T03:02:13.232Z,7.00
2024-02-06T03:04:59.064Z,7.10
2024-02-06T03:07:44.824Z,7.00
2024-02-06T03:10:30.303Z,7.10
2024-02-06T03:13:17.534Z,7.00
2024-02-06T03:16:03.500Z,6.90
2024-02-06T03:18:49.129Z,6.90
2024-02-06T03:21:34.948Z,6.80
2024-02-06T03:24:20.302Z,6.80
2024-02-06T03:27:06.594Z,6.80
2024-02-06T03:29:55.955Z,6.70
2024-02-06T03:32:41.833Z,6.60
2024-02-06T03:35:27.807Z,6.60
2024-02-06T03:38:13.385Z,6.40
2024-02-06T03:40:58.598Z,6.40
2024-02-06T03:43:44.804Z,6.30
2024-02-06T03:46:30.446Z,6.20
2024-02-06T03:49:16.364Z,6.20
2024-02-06T03:52:02.239Z,6.10
2024-02-06T03:54:48.179Z,5.90
2024-02-06T03:57:36.343Z,5.70
2024-02-06T04:00:22.347Z,5.60
2024-02-06T04:03:07.820Z,5.50
2024-02-06T04:05:54.326Z,5.60
2024-02-06T04:08:40.502Z,5.60
2024-02-06T04:11:26.397Z,5.70
2024-02-06T04:14:11.940Z,6.00
2024-02-06T04:16:57.706Z,6.20
2024-02-06T04:19:43.143Z,6.40
2024-02-06T04:22:29.173Z,6.70
2024-02-06T04:25:14.938Z,6.80
2024-02-06T04:28:00.960Z,7.00
2024-02-06T04:30:49.754Z,7.00
2024-02-06T04:33:35.978Z,7.10
2024-02-06T04:36:22.915Z,7.10
2024-02-06T04:39:12.068Z,7.10
2024-02-06T04:41:57.854Z,7.20
2024-02-06T04:44:43.585Z,7.20
2024-02-06T04:47:29.391Z,7.10
2024-02-06T04:50:16.500Z,7.00
2024-02-06T04:53:05.709Z,7.00
2024-02-06T04:55:51.610Z,7.00
2024-02-06T04:58:37.296Z,6.90
2024-02-06T05:01:23.232Z,6.80
2024-02-06T05:04:09.301Z,6.70
2024-02-06T05:06:54.892Z,6.70
2024-02-06T05:09:43.318Z,6.60
2024-02-06T05:12:29.007Z,6.50
2024-02-06T05:15:15.716Z,6.50
2024-02-06T05:18:01.552Z,6.50
2024-02-06T05:20:49.452Z,6.50
2024-02-06T05:23:35.346Z,6.40
2024-02-06T05:26:22.361Z,6.40
2024-02-06T05:29:08.115Z,6.40
2024-02-06T05:31:53.588Z,6.40
2024-02-06T05:34:39.423Z,6.40
2024-02-06T05:37:25.565Z,6.30
2024-02-06T05:40:13.757Z,6.40
2024-02-06T05:43:00.087Z,6.60
2024-02-06T05:45:46.228Z,6.70
2024-02-06T05:48:31.815Z,6.70
2024-02-06T05:51:17.377Z,6.60
2024-02-06T05:54:02.761Z,6.70
2024-02-06T05:56:48.214Z,6.60
2024-02-06T05:59:33.656Z,6.50
2024-02-06T06:02:19.022Z,6.40
2024-02-06T06:05:04.933Z,6.30
2024-02-06T06:07:50.928Z,6.20
2024-02-06T06:10:36.993Z,6.10
2024-02-06T06:13:22.715Z,6.00
2024-02-06T06:16:08.151Z,5.90
2024-02-06T06:18:53.663Z,5.70
2024-02-06T06:21:42.250Z,5.70
2024-02-06T06:24:29.539Z,5.60
2024-02-06T06:27:16.872Z,5.60
2024-02-06T06:30:02.587Z,5.60
2024-02-06T06:32:48.030Z,5.50
2024-02-06T06:35:33.743Z,5.50
2024-02-06T06:38:19.081Z,5.50
2024-02-06T06:41:04.865Z,5.50
2024-02-06T06:43:50.418Z,5.60
2024-02-06T06:46:35.865Z,5.60
2024-02-06T06:49:23.220Z,5.60
2024-02-06T06:52:09.387Z,5.60
2024-02-06T06:54:55.263Z,5.70
2024-02-06T06:57:44.082Z,5.70
2024-02-06T07:00:30.439Z,5.70
2024-02-06T07:03:16.214Z,5.80
2024-02-06T07:06:02.280Z,5.80
2024-02-06T07:08:47.899Z,5.70
2024-02-06T07:11:33.381Z,5.80
2024-02-06T07:14:19.209Z,6.00
2024-02-06T07:17:06.815Z,6.00
2024-02-06T07:19:52.639Z,6.00
2024-02-06T07:22:38.661Z,6.10
2024-02-06T07:25:24.032Z,6.10
2024-02-06T07:28:09.788Z,6.00
2024-02-06T07:30:55.426Z,6.10
2024-02-06T07:33:44.687Z,6.10
2024-02-06T07:36:31.091Z,6.10
2024-02-06T07:39:16.966Z,6.20
2024-02-06T07:42:02.606Z,6.30
2024-02-06T07:44:48.211Z,6.50
2024-02-06T07:47:33.457Z,6.60
2024-02-06T07:50:19.349Z,6.70
2024-02-06T07:53:05.405Z,6.80
2024-02-06T07:55:50.790Z,6.90
2024-02-06T07:58:36.545Z,7.00
2024-02-06T08:01:22.106Z,7.00
2024-02-06T08:04:08.813Z,7.10
2024-02-06T08:06:54.713Z,7.20
2024-02-06T08:09:40.146Z,7.20
2024-02-06T08:12:25.933Z,7.20
2024-02-06T08:15:11.915Z,7.30
2024-02-06T08:17:57.385Z,7.40
2024-02-06T08:20:43.022Z,7.50
2024-02-06T08:23:28.739Z,7.50
2024-02-06T08:26:15.705Z,7.60
2024-02-06T08:29:01.880Z,7.60
2024-02-06T08:31:48.018Z,7.50
2024-02-06T08:34:33.646Z,7.50
2024-02-06T08:37:19.518Z,7.50
2024-02-06T08:40:08.252Z,7.50
2024-02-06T08:42:54.073Z,7.50
2024-02-06T08:45:39.774Z,7.50
2024-02-06T08:48:25.385Z,7.50
2024-02-06T08:51:11.504Z,7.40
2024-02-06T08:53:58.017Z,7.40
2024-02-06T08:56:44.307Z,7.40
2024-02-06T08:59:29.741Z,7.50
2024-02-06T09:02:15.784Z,7.50
2024-02-06T09:05:02.374Z,7.50
2024-02-06T09:07:48.192Z,7.50
2024-02-06T09:10:34.056Z,7.50
2024-02-06T09:13:21.215Z,7.50
2024-02-06T09:16:10.590Z,7.60
2024-02-06T09:18:58.813Z,7.50
2024-02-06T09:21:45.582Z,7.40
2024-02-06T09:24:31.248Z,7.50
2024-02-06T09:27:16.831Z,7.30
2024-02-06T09:30:02.332Z,7.20
2024-02-06T09:32:48.019Z,7.10
2024-02-06T09:35:33.817Z,7.00
2024-02-06T09:38:19.662Z,7.00
2024-02-06T09:41:13.213Z,7.00
2024-02-06T09:43:59.682Z,7.00
2024-02-06T09:46:51.627Z,6.90
2024-02-06T09:49:37.326Z,6.80
2024-02-06T09:52:24.340Z,7.00
2024-02-06T09:55:13.758Z,7.10
2024-02-06T09:58:00.095Z,7.60
2024-02-06T10:00:48.395Z,7.30
2024-02-06T10:03:36.114Z,7.40
2024-02-06T10:06:24.936Z,7.50
2024-02-06T10:09:13.619Z,7.50
2024-02-06T10:12:00.661Z,7.20
2024-02-06T10:14:46.511Z,7.30
2024-02-06T10:17:32.109Z,7.30
2024-02-06T10:20:17.519Z,7.30
2024-02-06T10:23:19.176Z,7.50
2024-02-06T10:26:05.470Z,7.50
2024-02-06T10:28:51.148Z,7.50
2024-02-06T10:31:38.716Z,7.70
2024-02-06T10:34:28.082Z,7.80
2024-02-06T10:37:16.331Z,7.70
2024-02-06T10:40:10.548Z,7.90
2024-02-06T10:43:32.696Z,7.80
2024-02-06T10:46:05.466Z,7.70
2024-02-06T10:48:53.903Z,7.80
2024-02-06T10:51:40.519Z,7.80
2024-02-06T10:54:26.546Z,7.90
2024-02-06T10:57:15.740Z,8.00
2024-02-06T11:00:14.052Z,8.00
2024-02-06T11:03:00.132Z,7.80
2024-02-06T11:05:54.182Z,7.80
2024-02-06T11:08:40.799Z,7.80
2024-02-06T11:11:26.684Z,8.00
2024-02-06T11:14:15.550Z,7.80
2024-02-06T11:17:04.884Z,7.50
2024-02-06T11:20:05.607Z,7.70
2024-02-06T11:22:54.054Z,7.80
2024-02-06T11:25:40.767Z,7.90
2024-02-06T11:28:27.235Z,7.80
2024-02-06T11:31:13.594Z,7.90
2024-02-06T11:33:59.342Z,7.90
2024-02-06T11:36:46.223Z,7.60
2024-02-06T11:39:31.924Z,7.70
2024-02-06T11:42:27.009Z,7.80
2024-02-06T11:45:19.987Z,7.90
2024-02-06T11:48:08.156Z,8.10
2024-02-06T11:50:53.648Z,8.10
2024-02-06T11:53:39.048Z,8.00
2024-02-06T11:56:24.926Z,8.00
2024-02-06T11:59:10.878Z,8.10
2024-02-06T12:01:57.196Z,8.30
2024-02-06T12:04:43.112Z,8.30
2024-02-06T12:07:28.996Z,8.20
2024-02-06T12:10:27.898Z,8.10
2024-02-06T12:13:14.957Z,8.20
2024-02-06T12:16:07.642Z,8.30
2024-02-06T12:18:53.679Z,8.20
2024-02-06T12:21:40.920Z,8.00
2024-02-06T12:24:27.096Z,8.00
2024-02-06T12:27:12.696Z,8.10
2024-02-06T12:29:58.348Z,8.20
2024-02-06T12:32:43.763Z,8.00
2024-02-06T12:35:30.264Z,7.90
2024-02-06T12:38:19.405Z,8.10
2024-02-06T12:41:06.284Z,8.10
2024-02-06T12:43:53.734Z,8.10
2024-02-06T12:46:39.792Z,8.10
2024-02-06T12:49:28.385Z,8.20
2024-02-06T12:52:21.178Z,8.30
2024-02-06T12:55:08.854Z,8.60
2024-02-06T12:57:57.473Z,8.80
2024-02-06T13:00:43.595Z,8.70
2024-02-06T13:03:30.277Z,8.70
2024-02-06T13:06:17.120Z,8.70
2024-02-06T13:09:02.635Z,8.60
2024-02-06T13:11:48.408Z,8.70
2024-02-06T13:14:34.345Z,8.80
2024-02-06T13:17:23.547Z,8.90
2024-02-06T13:20:12.175Z,8.80
2024-02-06T13:23:17.198Z,8.90
2024-02-06T13:26:04.303Z,8.90
2024-02-06T13:28:59.416Z,8.70
2024-02-06T13:31:45.168Z,8.50
2024-02-06T13:34:30.652Z,8.70
2024-02-06T13:37:16.850Z,8.80
2024-02-06T13:40:03.600Z,8.70
2024-02-06T13:42:49.377Z,8.60
2024-02-06T13:45:34.689Z,8.60
2024-02-06T13:48:20.474Z,8.80
2024-02-06T13:51:07.212Z,8.90
2024-02-06T13:53:53.081Z,9.30
2024-02-06T13:56:39.377Z,9.00
2024-02-06T13:59:27.215Z,8.80
2024-02-06T14:02:13.359Z,8.90
2024-02-06T14:04:59.458Z,8.70
2024-02-06T14:07:45.035Z,8.90
2024-02-06T14:10:30.662Z,9.80
2024-02-06T14:13:16.774Z,10.60
2024-02-06T14:16:02.459Z,11.00
2024-02-06T14:18:48.760Z,10.70
2024-02-06T14:21:35.745Z,10.40
2024-02-06T14:24:23.034Z,10.60
2024-02-06T14:27:08.862Z,10.70
2024-02-06T14:29:54.260Z,11.00
2024-02-06T14:32:39.891Z,10.60
2024-02-06T14:35:27.631Z,10.50
2024-02-06T14:38:13.645Z,10.70
2024-02-06T14:40:59.483Z,10.70
2024-02-06T14:43:45.965Z,10.80
2024-02-06T14:46:31.791Z,10.90
2024-02-06T14:49:17.312Z,10.80
2024-02-06T14:52:03.321Z,10.20
2024-02-06T14:54:48.736Z,10.30
2024-02-06T14:57:34.146Z,10.50
2024-02-06T15:00:19.874Z,10.80
2024-02-06T15:03:07.683Z,10.90
2024-02-06T15:05:54.698Z,11.00
2024-02-06T15:08:41.543Z,11.10
2024-02-06T15:11:28.110Z,10.90
2024-02-06T15:14:14.049Z,11.20
2024-02-06T15:16:59.467Z,10.90
2024-02-06T15:19:47.371Z,10.70
2024-02-06T15:22:33.475Z,10.90
2024-02-06T15:25:19.022Z,10.70
2024-02-06T15:28:06.664Z,10.30
2024-02-06T15:30:52.020Z,9.80
2024-02-06T15:33:37.985Z,9.30
2024-02-06T15:36:23.792Z,8.60
2024-02-06T15:39:10.783Z,8.50
2024-02-06T15:41:56.837Z,8.40
2024-02-06T15:44:42.380Z,8.20
2024-02-06T15:47:27.815Z,7.70
2024-02-06T15:50:16.524Z,7.10
2024-02-06T15:53:03.003Z,6.70
2024-02-06T15:55:48.651Z,6.50
2024-02-06T15:58:34.397Z,6.30
2024-02-06T16:01:20.296Z,6.00
2024-02-06T16:04:06.520Z,5.90
2024-02-06T16:06:52.833Z,5.80
2024-02-06T16:09:38.510Z,5.60
2024-02-06T16:12:30.937Z,5.50
2024-02-06T16:15:23.074Z,5.50
2024-02-06T16:18:09.326Z,5.40
2024-02-06T16:20:55.065Z,5.30
2024-02-06T16:23:44.412Z,5.20
2024-02-06T16:26:31.906Z,5.20
2024-02-06T16:29:17.463Z,5.10
2024-02-06T16:32:02.950Z,5.00
2024-02-06T16:34:56.965Z,5.00
2024-02-06T16:37:46.659Z,4.90
2024-02-06T16:40:32.945Z,4.80
2024-02-06T16:43:18.972Z,4.70
2024-02-06T16:46:04.569Z,4.70
2024-02-06T16:48:50.507Z,4.70
2024-02-06T16:51:36.062Z,4.60
2024-02-06T16:54:23.805Z,4.60
2024-02-06T16:57:09.535Z,4.50
2024-02-06T16:59:54.925Z,4.50
2024-02-06T17:02:40.581Z,4.60
2024-02-06T17:05:27.705Z,4.50
2024-02-06T17:08:13.691Z,4.50
2024-02-06T17:10:59.253Z,4.50
2024-02-06T17:13:46.573Z,4.40
2024-02-06T17:16:32.196Z,4.40
2024-02-06T17:19:18.149Z,4.30
2024-02-06T17:22:03.932Z,4.30
2024-02-06T17:24:49.543Z,4.30
2024-02-06T17:27:35.061Z,4.20
2024-02-06T17:30:20.546Z,4.10
2024-02-06T17:33:12.919Z,4.00
2024-02-06T17:35:58.829Z,4.00
2024-02-06T17:38:45.412Z,3.90
2024-02-06T17:41:30.940Z,3.90
2024-02-06T17:44:16.423Z,3.80
2024-02-06T17:47:01.964Z,3.80
2024-02-06T17:49:49.353Z,3.80
2024-02-06T17:52:34.998Z,3.80
2024-02-06T17:55:20.773Z,3.80
2024-02-06T17:58:07.059Z,3.80
2024-02-06T18:00:52.805Z,3.80
2024-02-06T18:03:38.330Z,3.70
2024-02-06T18:06:23.769Z,3.70
2024-02-06T18:09:10.584Z,3.70
2024-02-06T18:11:57.175Z,3.60
2024-02-06T18:14:43.783Z,3.60
2024-02-06T18:17:29.319Z,3.60
2024-02-06T18:20:15.003Z,3.70
2024-02-06T18:23:00.896Z,3.60
2024-02-06T18:25:46.775Z,3.60
2024-02-06T18:28:32.543Z,3.60
2024-02-06T18:31:18.232Z,3.60
2024-02-06T18:34:04.269Z,3.60
2024-02-06T18:36:50.793Z,3.60
2024-02-06T18:39:36.897Z,3.70
2024-02-06T18:42:22.518Z,3.70
2024-02-06T18:45:08.066Z,3.70
2024-02-06T18:47:53.515Z,3.80
2024-02-06T18:50:39.254Z,3.80
2024-02-06T18:53:24.984Z,3.70
2024-02-06T18:56:10.413Z,3.80
2024-02-06T18:58:56.177Z,3.70
2024-02-06T19:01:42.021Z,3.80
2024-02-06T19:04:28.167Z,3.70
2024-02-06T19:07:13.738Z,3.70
2024-02-06T19:09:59.848Z,3.70
2024-02-06T19:12:45.306Z,3.70
2024-02-06T19:15:30.956Z,3.70
2024-02-06T19:18:17.268Z,3.70
2024-02-06T19:21:03.230Z,3.70
2024-02-06T19:23:49.214Z,3.70
2024-02-06T19:26:35.104Z,3.70
2024-02-06T19:29:20.803Z,3.60
2024-02-06T19:32:07.441Z,3.70
2024-02-06T19:34:53.353Z,3.70
2024-02-06T19:37:39.142Z,3.70
2024-02-06T19:40:25.230Z,3.70
2024-02-06T19:43:10.556Z,3.80
2024-02-06T19:45:55.885Z,3.70
2024-02-06T19:48:41.887Z,3.70
2024-02-06T19:51:27.771Z,3.60
2024-02-06T19:54:13.532Z,3.60
2024-02-06T19:56:58.859Z,3.70
2024-02-06T19:59:44.829Z,3.70
2024-02-06T20:02:30.604Z,3.60
2024-02-06T20:05:16.236Z,3.50
2024-02-06T20:08:03.518Z,3.60
2024-02-06T20:10:49.294Z,3.60
2024-02-06T20:13:35.005Z,3.60
2024-02-06T20:16:20.605Z,3.60
2024-02-06T20:19:06.452Z,3.50
2024-02-06T20:21:52.266Z,3.50
2024-02-06T20:24:37.860Z,3.50
2024-02-06T20:27:23.494Z,3.50
2024-02-06T20:30:09.327Z,3.60
2024-02-06T20:32:54.888Z,3.50
2024-02-06T20:35:40.762Z,3.50
2024-02-06T20:38:27.745Z,3.50
2024-02-06T20:41:13.527Z,3.50
2024-02-06T20:43:59.086Z,3.50
2024-02-06T20:46:45.003Z,3.50
2024-02-06T20:49:31.197Z,3.50
2024-02-06T20:52:17.048Z,3.50
2024-02-06T20:55:02.555Z,3.50
2024-02-06T20:57:48.014Z,3.50
2024-02-06T21:00:33.741Z,3.50
2024-02-06T21:03:20.192Z,3.50
2024-02-06T21:06:06.640Z,3.50
2024-02-06T21:08:52.333Z,3.50
2024-02-06T21:11:38.103Z,3.40
2024-02-06T21:14:24.016Z,3.40
2024-02-06T21:17:09.861Z,3.90
2024-02-06T21:19:55.935Z,3.50
2024-02-06T21:22:42.189Z,3.40
2024-02-06T21:25:27.990Z,3.40
2024-02-06T21:28:13.327Z,3.30
2024-02-06T21:30:58.723Z,3.30
2024-02-06T21:33:44.317Z,3.30
2024-02-06T21:36:29.874Z,3.30
2024-02-06T21:39:18.471Z,3.20
2024-02-06T21:42:04.691Z,3.20
2024-02-06T21:44:50.728Z,3.20
2024-02-06T21:47:39.027Z,3.20
2024-02-06T21:50:24.769Z,3.20
2024-02-06T21:53:10.311Z,3.20
2024-02-06T21:56:04.655Z,3.10
2024-02-06T21:58:57.569Z,3.10
2024-02-06T22:01:49.250Z,3.00
2024-02-06T22:04:34.990Z,3.00
2024-02-06T22:07:22.062Z,3.00
2024-02-06T22:10:09.236Z,3.00
2024-02-06T22:12:55.034Z,3.00
2024-02-06T22:15:40.490Z,3.00
2024-02-06T22:18:26.068Z,3.00
2024-02-06T22:21:12.588Z,2.90
2024-02-06T22:23:58.050Z,2.90
2024-02-06T22:26:43.658Z,2.90
2024-02-06T22:29:29.006Z,2.90
2024-02-06T22:32:14.983Z,2.80
2024-02-06T22:35:00.366Z,2.80
2024-02-06T22:37:46.060Z,2.80
2024-02-06T22:40:32.027Z,2.80
2024-02-06T22:43:17.837Z,2.80
2024-02-06T22:46:04.950Z,2.80
2024-02-06T22:48:50.198Z,2.80
2024-02-06T22:51:39.757Z,2.80
2024-02-06T22:54:25.254Z,2.80
2024-02-06T22:57:11.305Z,2.80
2024-02-06T22:59:57.058Z,2.80
2024-02-06T23:02:42.828Z,2.80
2024-02-06T23:05:28.627Z,2.80
2024-02-06T23:08:14.336Z,2.70
2024-02-06T23:11:00.429Z,2.70
2024-02-06T23:13:46.076Z,2.70
2024-02-06T23:16:31.827Z,2.70
2024-02-06T23:19:17.189Z,2.70
2024-02-06T23:22:02.797Z,2.70
2024-02-06T23:24:48.601Z,2.70
2024-02-06T23:27:34.340Z,2.70
2024-02-06T23:30:20.194Z,2.70
2024-02-06T23:33:05.773Z,2.70
2024-02-06T23:35:51.220Z,2.70
2024-02-06T23:38:46.523Z,2.70
2024-02-06T23:41:39.685Z,2.80
2024-02-06T23:44:25.632Z,2.70
2024-02-06T23:47:11.435Z,2.70
2024-02-06T23:49:59.880Z,2.70
2024-02-06T23:52:45.756Z,2.70
2024-02-06T23:55:31.624Z,2.70
2024-02-06T23:58:17.027Z,2.70
